createdAt,value
2024-03-05T00:02:19.342Z,44.63
2024-03-05T00:04:47.494Z,44.88
2024-03-05T00:07:17.148Z,43.40
2024-03-05T00:09:43.892Z,46.85
2024-03-05T00:12:13.130Z,31.17
2024-03-05T00:14:39.966Z,42.72
2024-03-05T00:17:06.625Z,34.80
2024-03-05T00:19:33.382Z,32.00
2024-03-05T00:22:00.077Z,39.05
2024-03-05T00:24:26.930Z,28.20
2024-03-05T00:26:54.190Z,37.22
2024-03-05T00:29:20.928Z,42.47
2024-03-05T00:31:48.255Z,48.60
2024-03-05T00:34:16.310Z,34.33
2024-03-05T00:36:43.005Z,36.72
2024-03-05T00:39:09.700Z,54.78
2024-03-05T00:41:36.390Z,41.20
2024-03-05T00:44:03.079Z,41.53
2024-03-05T00:46:29.752Z,50.45
2024-03-05T00:48:56.377Z,42.03
2024-03-05T00:51:23.778Z,45.08
2024-03-05T00:53:50.445Z,52.15
2024-03-05T00:56:17.206Z,42.33
2024-03-05T00:58:43.915Z,42.63
2024-03-05T01:01:10.672Z,42.60
2024-03-05T01:03:39.002Z,42.33
2024-03-05T01:06:07.382Z,64.93
2024-03-05T01:08:34.361Z,46.47
2024-03-05T01:11:02.273Z,37.22
2024-03-05T01:13:29.444Z,47.33
2024-03-05T01:15:56.275Z,50.13
2024-03-05T01:18:23.047Z,58.22
2024-03-05T01:20:49.772Z,42.50
2024-03-05T01:23:16.403Z,40.15
2024-03-05T01:25:44.794Z,30.88
2024-03-05T01:28:11.580Z,44.50
2024-03-05T01:30:41.519Z,44.20
2024-03-05T01:33:11.010Z,41.03
2024-03-05T01:35:38.693Z,37.55
2024-03-05T01:38:05.334Z,53.70
2024-03-05T01:40:31.938Z,51.08
2024-03-05T01:42:59.235Z,38.90
2024-03-05T01:45:27.282Z,40.90
2024-03-05T01:47:54.122Z,35.83
2024-03-05T01:50:20.943Z,42.58
2024-03-05T01:52:47.839Z,43.35
2024-03-05T01:55:15.998Z,39.70
2024-03-05T01:57:44.721Z,36.15
2024-03-05T02:00:12.332Z,49.95
2024-03-05T02:02:39.033Z,38.63
2024-03-05T02:05:06.015Z,44.33
2024-03-05T02:07:33.800Z,33.60
2024-03-05T02:10:08.603Z,55.47
2024-03-05T02:12:38.696Z,38.53
2024-03-05T02:15:06.228Z,52.92
2024-03-05T02:17:33.459Z,47.15
2024-03-05T02:20:00.134Z,57.38
2024-03-05T02:22:27.440Z,45.15
2024-03-05T02:24:54.434Z,56.40
2024-03-05T02:27:27.335Z,47.83
2024-03-05T02:30:00.447Z,38.50
2024-03-05T02:32:27.568Z,49.72
2024-03-05T02:34:55.852Z,38.50
2024-03-05T02:37:25.837Z,44.83
2024-03-05T02:39:52.577Z,45.75
2024-03-05T02:42:19.505Z,41.10
2024-03-05T02:44:46.252Z,38.40
2024-03-05T02:47:13.049Z,39.67
2024-03-05T02:49:39.820Z,35.53
2024-03-05T02:52:07.301Z,37.10
2024-03-05T02:54:35.114Z,34.17
2024-03-05T02:57:01.839Z,36.72
2024-03-05T02:59:28.576Z,37.78
2024-03-05T03:01:55.423Z,34.75
2024-03-05T03:04:22.314Z,39.15
2024-03-05T03:06:49.366Z,32.35
2024-03-05T03:09:16.073Z,30.23
2024-03-05T03:11:43.283Z,30.58
2024-03-05T03:14:10.599Z,31.77
2024-03-05T03:16:37.456Z,34.40
2024-03-05T03:19:06.091Z,27.58
2024-03-05T03:21:32.935Z,29.80
2024-03-05T03:23:59.775Z,30.05
2024-03-05T03:26:26.431Z,35.45
2024-03-05T03:28:53.696Z,28.40
2024-03-05T03:31:20.619Z,32.67
2024-03-05T03:33:47.325Z,28.70
2024-03-05T03:36:22.081Z,29.63
2024-03-05T03:38:48.822Z,28.30
2024-03-05T03:41:16.166Z,25.95
2024-03-05T03:43:43.609Z,29.75
2024-03-05T03:46:10.548Z,36.80
2024-03-05T03:48:37.719Z,28.48
2024-03-05T03:51:04.934Z,27.90
2024-03-05T03:53:34.576Z,29.60
2024-03-05T03:56:01.390Z,29.20
2024-03-05T03:58:28.173Z,30.08
2024-03-05T04:00:55.295Z,28.83
2024-03-05T04:03:22.015Z,29.38
2024-03-05T04:05:48.745Z,28.02
2024-03-05T04:08:15.432Z,26.27
2024-03-05T04:10:42.364Z,26.38
2024-03-05T04:13:11.633Z,23.60
2024-03-05T04:15:38.364Z,28.05
2024-03-05T04:18:05.577Z,26.45
2024-03-05T04:20:32.252Z,27.25
2024-03-05T04:22:59.786Z,23.50
2024-03-05T04:25:35.716Z,26.75
2024-03-05T04:28:12.255Z,24.20
2024-03-05T04:30:39.545Z,24.48
2024-03-05T04:33:09.661Z,27.65
2024-03-05T04:35:37.155Z,25.42
2024-03-05T04:38:06.989Z,23.33
2024-03-05T04:40:37.018Z,25.15
2024-03-05T04:43:03.930Z,23.92
2024-03-05T04:45:30.774Z,22.38
2024-03-05T04:47:58.335Z,21.25
2024-03-05T04:50:25.065Z,23.40
2024-03-05T04:52:54.635Z,27.42
2024-03-05T04:55:23.356Z,23.45
2024-03-05T04:57:50.402Z,21.92
2024-03-05T05:00:24.757Z,23.83
2024-03-05T05:02:53.300Z,20.90
2024-03-05T05:05:21.339Z,22.23
2024-03-05T05:07:48.251Z,23.27
2024-03-05T05:10:15.345Z,25.65
2024-03-05T05:12:42.150Z,25.13
2024-03-05T05:15:08.965Z,23.27
2024-03-05T05:17:35.853Z,24.70
2024-03-05T05:20:03.738Z,25.00
2024-03-05T05:22:30.472Z,33.03
2024-03-05T05:24:57.268Z,36.08
2024-03-05T05:27:24.109Z,27.30
2024-03-05T05:29:53.233Z,23.60
2024-03-05T05:32:23.379Z,23.55
2024-03-05T05:34:50.114Z,39.53
2024-03-05T05:37:16.998Z,25.55
2024-03-05T05:39:43.961Z,24.88
2024-03-05T05:42:13.406Z,23.30
2024-03-05T05:44:40.180Z,21.92
2024-03-05T05:47:06.956Z,22.83
2024-03-05T05:49:33.944Z,21.92
2024-03-05T05:52:01.105Z,25.02
2024-03-05T05:54:27.759Z,19.75
2024-03-05T05:56:54.545Z,19.10
2024-03-05T05:59:21.284Z,22.77
2024-03-05T06:01:48.336Z,21.50
2024-03-05T06:04:17.102Z,21.27
2024-03-05T06:06:44.732Z,22.15
2024-03-05T06:09:11.469Z,22.45
2024-03-05T06:11:38.946Z,21.23
2024-03-05T06:14:06.444Z,18.88
2024-03-05T06:16:33.797Z,19.20
2024-03-05T06:19:01.809Z,20.73
2024-03-05T06:21:28.640Z,15.98
2024-03-05T06:23:55.271Z,18.88
2024-03-05T06:26:22.981Z,16.80
2024-03-05T06:28:49.885Z,16.08
2024-03-05T06:31:17.408Z,16.58
2024-03-05T06:33:44.315Z,14.88
2024-03-05T06:36:12.862Z,17.13
2024-03-05T06:38:39.698Z,47.03
2024-03-05T06:41:06.584Z,18.08
2024-03-05T06:43:34.787Z,13.43
2024-03-05T06:46:01.916Z,12.48
2024-03-05T06:48:28.740Z,12.75
2024-03-05T06:51:18.423Z,13.68
2024-03-05T06:54:04.030Z,12.43
2024-03-05T06:56:42.977Z,14.88
2024-03-05T06:59:11.757Z,15.18
2024-03-05T07:01:39.052Z,13.15
2024-03-05T07:04:07.984Z,14.52
2024-03-05T07:06:35.745Z,14.90
2024-03-05T07:09:03.655Z,19.58
2024-03-05T07:11:31.029Z,14.73
2024-03-05T07:13:59.657Z,12.98
2024-03-05T07:16:26.570Z,12.35
2024-03-05T07:18:56.705Z,14.38
2024-03-05T07:21:24.490Z,14.63
2024-03-05T07:23:52.628Z,13.30
2024-03-05T07:26:20.311Z,17.95
2024-03-05T07:28:47.438Z,12.93
2024-03-05T07:31:15.237Z,13.55
2024-03-05T07:33:42.488Z,9.35
2024-03-05T07:36:09.216Z,8.52
2024-03-05T07:38:36.179Z,9.23
2024-03-05T07:41:11.317Z,8.38
2024-03-05T07:43:44.650Z,8.57
2024-03-05T07:46:11.873Z,9.77
2024-03-05T07:48:38.659Z,9.13
2024-03-05T07:51:05.445Z,11.55
2024-03-05T07:53:32.298Z,8.60
2024-03-05T07:55:59.378Z,10.50
2024-03-05T07:58:26.110Z,11.45
2024-03-05T08:00:53.175Z,9.90
2024-03-05T08:03:19.897Z,10.45
2024-03-05T08:05:47.132Z,9.98
2024-03-05T08:08:13.998Z,11.23
2024-03-05T08:10:40.705Z,109.68
2024-03-05T08:13:08.552Z,16.88
2024-03-05T08:15:35.368Z,9.32
2024-03-05T08:18:02.381Z,11.23
2024-03-05T08:20:29.400Z,10.48
2024-03-05T08:22:56.784Z,10.07
2024-03-05T08:25:24.456Z,10.30
2024-03-05T08:28:00.669Z,10.65
2024-03-05T08:30:31.288Z,12.80
2024-03-05T08:32:58.352Z,10.45
2024-03-05T08:35:27.204Z,12.63
2024-03-05T08:37:54.551Z,11.85
2024-03-05T08:40:22.642Z,14.05
2024-03-05T08:42:50.514Z,13.50
2024-03-05T08:45:21.275Z,13.52
2024-03-05T08:47:49.358Z,12.57
2024-03-05T08:50:16.473Z,14.80
2024-03-05T08:52:43.350Z,13.73
2024-03-05T08:55:14.461Z,11.90
2024-03-05T08:57:41.728Z,13.05
2024-03-05T09:00:16.795Z,12.35
2024-03-05T09:02:53.913Z,10.48
2024-03-05T09:05:21.312Z,10.23
2024-03-05T09:07:48.157Z,14.00
2024-03-05T09:10:19.611Z,10.10
2024-03-05T09:12:46.347Z,11.02
2024-03-05T09:15:13.692Z,13.55
2024-03-05T09:17:40.410Z,9.55
2024-03-05T09:20:16.774Z,11.68
2024-03-05T09:22:46.301Z,10.20
2024-03-05T09:25:16.405Z,11.02
2024-03-05T09:27:51.733Z,9.48
2024-03-05T09:30:19.898Z,10.82
2024-03-05T09:32:50.319Z,12.85
2024-03-05T09:35:17.309Z,12.55
2024-03-05T09:37:50.337Z,12.95
2024-03-05T09:40:21.042Z,14.63
2024-03-05T09:42:49.350Z,13.15
2024-03-05T09:45:17.173Z,12.93
2024-03-05T09:47:44.952Z,12.40
2024-03-05T09:50:15.691Z,13.63
2024-03-05T09:52:42.637Z,13.30
2024-03-05T09:55:10.489Z,13.75
2024-03-05T09:57:39.782Z,15.32
2024-03-05T10:00:07.962Z,14.68
2024-03-05T10:02:34.859Z,15.20
2024-03-05T10:05:03.930Z,84.80
2024-03-05T10:07:31.058Z,75.95
2024-03-05T10:10:12.707Z,17.70
2024-03-05T10:12:41.050Z,13.73
2024-03-05T10:15:19.077Z,13.38
2024-03-05T10:17:46.599Z,11.05
2024-03-05T10:20:28.894Z,12.07
2024-03-05T10:23:03.258Z,10.80
2024-03-05T10:25:31.018Z,11.20
2024-03-05T10:27:57.895Z,11.57
2024-03-05T10:30:25.869Z,11.60
2024-03-05T10:32:56.638Z,14.55
2024-03-05T10:35:23.835Z,13.20
2024-03-05T10:38:00.386Z,10.13
2024-03-05T10:40:27.882Z,10.43
2024-03-05T10:42:56.117Z,13.07
2024-03-05T10:45:24.851Z,11.80
2024-03-05T10:47:52.147Z,10.13
2024-03-05T10:50:19.478Z,10.20
2024-03-05T10:52:47.321Z,9.00
2024-03-05T10:55:14.809Z,10.02
2024-03-05T10:58:01.695Z,11.10
2024-03-05T11:00:28.547Z,9.70
2024-03-05T11:02:58.924Z,9.05
2024-03-05T11:05:29.109Z,11.40
2024-03-05T11:07:56.051Z,135.73
2024-03-05T11:10:23.362Z,19.95
2024-03-05T11:12:50.314Z,11.90
2024-03-05T11:15:17.339Z,14.13
2024-03-05T11:17:44.103Z,11.15
2024-03-05T11:20:14.195Z,10.27
2024-03-05T11:22:47.043Z,11.02
2024-03-05T11:25:34.354Z,10.13
2024-03-05T11:28:01.204Z,10.77
2024-03-05T11:30:30.873Z,11.35
2024-03-05T11:32:57.633Z,12.10
2024-03-05T11:35:27.277Z,9.75
2024-03-05T11:37:55.476Z,12.82
2024-03-05T11:40:30.356Z,13.25
2024-03-05T11:42:56.994Z,12.93
2024-03-05T11:45:42.961Z,14.18
2024-03-05T11:48:11.141Z,17.20
2024-03-05T11:50:38.378Z,33.40
2024-03-05T11:53:05.928Z,71.45
2024-03-05T11:55:54.188Z,54.22
2024-03-05T11:58:24.852Z,26.30
2024-03-05T12:00:59.735Z,20.55
2024-03-05T12:03:26.505Z,26.77
2024-03-05T12:05:53.234Z,31.63
2024-03-05T12:08:24.754Z,26.95
2024-03-05T12:10:53.421Z,35.53
2024-03-05T12:13:20.270Z,27.25
2024-03-05T12:15:47.051Z,25.55
2024-03-05T12:18:13.923Z,23.90
2024-03-05T12:20:42.312Z,26.65
2024-03-05T12:23:09.419Z,35.15
2024-03-05T12:25:36.492Z,47.95
2024-03-05T12:28:03.450Z,49.28
2024-03-05T12:30:34.800Z,29.70
2024-03-05T12:33:02.015Z,31.08
2024-03-05T12:35:29.396Z,35.20
2024-03-05T12:37:57.162Z,63.90
2024-03-05T12:40:26.750Z,35.92
2024-03-05T12:42:53.591Z,26.05
2024-03-05T12:45:20.377Z,24.02
2024-03-05T12:47:57.058Z,23.35
2024-03-05T12:50:23.935Z,20.02
2024-03-05T12:53:09.913Z,28.77
2024-03-05T12:55:37.697Z,28.88
2024-03-05T12:58:06.704Z,29.55
2024-03-05T13:00:35.862Z,29.17
2024-03-05T13:03:12.046Z,35.72
2024-03-05T13:05:39.907Z,38.15
2024-03-05T13:08:07.663Z,38.78
2024-03-05T13:10:35.162Z,39.63
2024-03-05T13:13:02.033Z,60.60
2024-03-05T13:15:28.851Z,52.15
2024-03-05T13:17:55.955Z,42.35
2024-03-05T13:20:24.069Z,45.50
2024-03-05T13:22:53.480Z,40.72
2024-03-05T13:25:20.636Z,42.35
2024-03-05T13:27:50.767Z,46.53
2024-03-05T13:30:18.531Z,44.88
2024-03-05T13:32:47.404Z,45.00
2024-03-05T13:35:14.976Z,65.82
2024-03-05T13:37:42.037Z,47.75
2024-03-05T13:40:12.763Z,49.22
2024-03-05T13:42:39.554Z,42.75
2024-03-05T13:45:14.122Z,39.42
2024-03-05T13:47:40.970Z,53.55
2024-03-05T13:50:11.848Z,44.25
2024-03-05T13:52:41.493Z,39.85
2024-03-05T13:55:09.221Z,44.30
2024-03-05T13:57:36.008Z,36.22
2024-03-05T14:00:04.250Z,32.72
2024-03-05T14:02:30.986Z,47.10
2024-03-05T14:04:57.644Z,41.08
2024-03-05T14:07:24.347Z,43.15
2024-03-05T14:09:51.001Z,46.35
2024-03-05T14:12:20.918Z,43.70
2024-03-05T14:14:48.672Z,44.88
2024-03-05T14:17:15.550Z,45.60
2024-03-05T14:19:42.637Z,38.58
2024-03-05T14:22:12.662Z,41.58
2024-03-05T14:24:39.562Z,40.75
2024-03-05T14:27:06.663Z,37.67
2024-03-05T14:29:33.350Z,37.78
2024-03-05T14:32:00.546Z,40.42
2024-03-05T14:34:28.658Z,41.20
2024-03-05T14:36:55.765Z,41.72
2024-03-05T14:39:22.650Z,40.15
2024-03-05T14:41:49.711Z,45.13
2024-03-05T14:44:16.626Z,45.53
2024-03-05T14:46:43.519Z,43.30
2024-03-05T14:49:12.675Z,41.90
2024-03-05T14:51:39.455Z,41.17
2024-03-05T14:54:08.508Z,37.05
2024-03-05T14:56:38.232Z,51.60
2024-03-05T14:59:05.642Z,35.97
2024-03-05T15:01:32.932Z,39.85
2024-03-05T15:03:59.668Z,41.05
2024-03-05T15:06:26.673Z,36.35
2024-03-05T15:08:53.574Z,38.97
2024-03-05T15:11:20.429Z,41.25
2024-03-05T15:13:47.541Z,37.35
2024-03-05T15:16:15.361Z,37.03
2024-03-05T15:18:42.540Z,40.20
2024-03-05T15:21:15.498Z,37.03
2024-03-05T15:23:42.626Z,47.20
2024-03-05T15:26:12.006Z,44.75
2024-03-05T15:28:39.052Z,36.33
2024-03-05T15:31:10.754Z,43.78
2024-03-05T15:33:41.041Z,40.60
2024-03-05T15:36:08.217Z,43.35
2024-03-05T15:38:35.369Z,43.45
2024-03-05T15:41:05.346Z,41.00
2024-03-05T15:46:32.621Z,40.10
2024-03-05T20:04:47.476Z,43.53
2024-03-05T20:15:20.979Z,54.65
2024-03-05T20:17:53.331Z,53.85
2024-03-05T22:23:30.577Z,56.08
2024-03-05T22:26:00.140Z,52.70
2024-03-05T22:44:43.510Z,57.10
2024-03-05T23:34:23.355Z,54.78
